createdAt,value
2022-10-19T00:09:32.298Z,14.80
2022-10-19T00:31:19.408Z,16.50
2022-10-19T00:53:05.207Z,17.40
2022-10-19T01:15:04.679Z,14.30
2022-10-19T01:37:00.846Z,22.50
2022-10-19T02:02:44.529Z,19.70
2022-10-19T02:24:30.823Z,28.80
2022-10-19T02:46:24.581Z,21.70
2022-10-19T03:08:10.448Z,27.50
2022-10-19T03:29:56.763Z,23.80
2022-10-19T03:51:45.035Z,28.80
2022-10-19T04:13:31.346Z,25.80
2022-10-19T04:35:17.359Z,25.40
2022-10-19T04:57:03.221Z,26.50
2022-10-19T05:18:52.689Z,19.90
2022-10-19T05:40:38.643Z,19.30
2022-10-19T06:02:24.806Z,14.70
2022-10-19T06:24:13.310Z,15.00
2022-10-19T06:45:59.407Z,20.00
2022-10-19T07:07:45.729Z,16.50
2022-10-19T07:29:31.630Z,17.20
2022-10-19T07:51:21.191Z,14.50
2022-10-19T08:13:07.068Z,12.90
2022-10-19T08:34:52.927Z,11.30
2022-10-19T08:56:51.953Z,12.00
2022-10-19T09:18:38.255Z,9.10
2022-10-19T09:40:32.169Z,9.60
2022-10-19T10:02:22.543Z,6.90
2022-10-19T10:24:18.266Z,7.80
2022-10-19T10:46:08.337Z,5.00
2022-10-19T11:07:57.941Z,6.00
2022-10-19T11:30:04.751Z,4.60
2022-10-19T11:51:58.375Z,4.70
2022-10-19T12:13:49.420Z,8.40
2022-10-19T12:35:50.302Z,9.30
2022-10-19T12:57:36.558Z,9.70
2022-10-19T13:19:24.279Z,9.50
2022-10-19T13:41:15.365Z,6.70
2022-10-19T14:03:19.303Z,7.90
2022-10-19T14:25:18.177Z,6.20
2022-10-19T14:47:08.194Z,8.80
2022-10-19T15:09:12.148Z,6.90
2022-10-19T15:31:16.932Z,8.50
2022-10-19T16:02:46.313Z,10.90
2022-10-19T16:24:32.595Z,11.50
2022-10-19T16:46:21.941Z,9.40
2022-10-19T17:26:00.723Z,9.80
2022-10-19T17:47:46.440Z,10.00
2022-10-19T18:09:32.353Z,12.40
2022-10-19T18:31:20.629Z,13.60
2022-10-19T18:53:06.534Z,12.60
2022-10-19T19:14:52.452Z,15.50
2022-10-19T19:58:25.734Z,18.30
2022-10-19T20:20:17.983Z,24.50
2022-10-19T20:42:04.274Z,20.20
2022-10-19T21:03:52.672Z,15.00
2022-10-19T21:25:38.905Z,12.60
2022-10-19T21:47:24.689Z,11.30
2022-10-19T22:09:13.394Z,11.10
2022-10-19T22:31:00.535Z,14.10
2022-10-19T22:52:46.439Z,13.80
2022-10-19T23:14:32.295Z,14.70
2022-10-19T23:36:20.114Z,12.30
2022-10-19T23:58:06.697Z,20.00
